Date,TemperatureHighF,TemperatureAvgF,TemperatureLowF,DewpointHighF,DewpointAvgF,DewpointLowF,HumidityHigh,HumidityAvg,HumidityLow,PressureMaxIn,PressureMinIn,WindSpeedMaxMPH,WindSpeedAvgMPH,GustSpeedMaxMPH,PrecipitationSumIn
2013-9-1,82.9,68.0,57.9,0.0,0.0,0.0,0,0,100,29.89,29.79,8,1,10,0.00
2013-9-2,85.6,70.6,59.5,0.0,0.0,0.0,0,0,100,29.89,29.79,8,1,8,0.00
2013-9-3,85.5,68.7,55.9,0.0,0.0,0.0,0,0,100,29.92,29.82,10,1,11,0.00
2013-9-4,88.0,69.2,55.6,0.0,0.0,0.0,0,0,100,29.96,29.83,7,1,9,0.00
2013-9-5,89.8,70.1,55.6,0.0,0.0,0.0,0,0,100,29.93,29.83,10,1,10,0.00
2013-9-6,95.2,73.6,56.3,0.0,0.0,0.0,0,0,100,29.92,29.75,9,1,9,0.00
2013-9-7,95.2,76.3,57.7,0.0,0.0,0.0,0,0,100,29.82,29.72,10,1,10,0.00
2013-9-8,90.0,70.4,56.5,0.0,0.0,0.0,0,0,100,29.83,29.68,7,1,7,0.00
2013-9-9,93.9,68.9,55.2,0.0,0.0,0.0,0,0,100,29.76,29.62,8,1,8,0.00
2013-9-10,75.0,64.4,59.5,0.0,0.0,0.0,0,0,100,29.84,29.67,10,1,11,0.00
2013-9-11,71.4,65.6,62.6,0.0,0.0,0.0,0,0,100,29.94,29.84,7,1,7,0.00
2013-9-12,80.8,67.1,60.4,0.0,0.0,0.0,0,0,100,29.92,29.80,11,1,11,0.00
2013-9-13,81.3,65.8,57.4,0.0,0.0,0.0,0,0,100,29.84,29.67,10,1,12,0.00
2013-9-14,80.6,64.7,57.0,0.0,0.0,0.0,0,0,100,29.77,29.64,12,1,12,0.00
2013-9-15,82.2,65.7,55.6,0.0,0.0,0.0,0,0,100,29.80,29.70,7,1,9,0.00
2013-9-16,87.4,67.9,56.5,0.0,0.0,0.0,0,0,100,29.84,29.67,11,1,11,0.00
2013-9-17,81.7,67.1,54.0,0.0,0.0,0.0,0,0,100,29.82,29.73,15,3,16,0.00
2013-9-18,88.3,70.1,57.0,0.0,0.0,0.0,0,0,100,29.85,29.72,11,1,12,0.00
2013-9-19,90.3,67.9,52.3,0.0,0.0,0.0,0,0,100,29.80,29.67,9,1,29,0.00
2013-9-20,78.4,62.7,49.8,0.0,0.0,0.0,0,0,100,29.79,29.71,11,1,11,0.00
2013-9-21,71.2,63.8,56.5,54.2,23.9,-31.1,55,28,50,29.83,29.72,17,1,17,0.77
2013-9-22,77.5,61.3,50.7,60.0,43.5,32.3,55,52,49,29.94,29.83,7,1,10,0.00
2013-9-23,83.5,63.7,53.8,65.6,45.8,36.0,55,52,50,29.96,29.83,7,0,7,0.00
2013-9-24,73.9,61.4,56.1,56.7,31.1,0.0,55,37,50,29.91,29.81,17,2,17,0.00
2013-9-25,74.8,62.2,51.8,0.0,0.0,0.0,0,0,100,29.88,29.74,17,4,17,0.00
2013-9-26,81.0,62.9,49.8,0.0,0.0,0.0,0,0,100,29.93,29.78,11,1,11,0.00
2013-9-27,81.9,64.6,50.2,0.0,0.0,0.0,0,0,100,30.04,29.94,8,1,13,0.00
2013-9-28,82.0,63.7,49.6,0.0,0.0,0.0,0,0,100,30.03,29.93,8,1,9,0.00
2013-9-29,72.3,63.4,56.1,0.0,0.0,0.0,0,0,100,30.04,29.98,10,1,11,0.00
2013-9-30,74.1,65.3,57.0,0.0,0.0,0.0,0,0,100,29.99,29.90,8,1,8,0.00